GEML

Melilla Airport

Melilla, Spain
METAR GEML 161030Z 17002KT 9999 FEW009 SCT014 BKN036 14/13 Q1018 RERA
Observed Flight Rules
Dec-16 @ 10:30 UTC (40 minutes ago) Visual Flight Rules
Wind Visibility Clouds
170° at 2 knots 10,000+ meters
  • Few at 900' AGL
  • Scattered at 1,400' AGL
  • Broken at 3,600' AGL
Temperatures Readings
Current 14°C / 57°F
Dewpoint 13°C / 55°F
Humidity 94%
Altimeter 30.06" Hg
Pressure 1018 hPa
Elevation 55
METAR GEML 161030Z 17002KT 9999 FEW009 SCT014 BKN036 14/13 Q1018 RERA
Observed Flight Rules
Dec-16 @ 10:30 UTC
(40 minutes ago)
VFR
Wind Visibility
170° at 2 knots 10,000+ meters
Clouds
  • Few at 900' AGL
  • Scattered at 1,400' AGL
  • Broken at 3,600' AGL
Temperature Dewpoint
14°C / 57°F 13°C / 55°F
Humidity Altimeter Pressure
94% 30.06" Hg 1018 hPa